createdAt,value
2019-03-25T00:00:33.628Z,6.59
2019-03-25T00:01:33.613Z,6.51
2019-03-25T00:02:33.600Z,6.64
2019-03-25T00:03:34.403Z,6.59
2019-03-25T00:04:33.575Z,6.59
2019-03-25T00:05:33.568Z,6.49
2019-03-25T00:06:33.561Z,6.59
2019-03-25T00:07:33.549Z,6.63
2019-03-25T00:08:33.545Z,6.63
2019-03-25T00:09:33.528Z,6.63
2019-03-25T00:10:33.515Z,6.64
2019-03-25T00:11:33.510Z,6.62
2019-03-25T00:12:33.501Z,6.62
2019-03-25T00:13:33.492Z,6.62
2019-03-25T00:14:33.478Z,6.60
2019-03-25T00:15:33.467Z,6.62
2019-03-25T00:16:33.454Z,6.56
2019-03-25T00:17:33.456Z,6.67
2019-03-25T00:18:33.443Z,6.60
2019-03-25T00:19:33.421Z,6.62
2019-03-25T00:20:33.418Z,6.46
2019-03-25T00:21:33.399Z,6.59
2019-03-25T00:22:33.393Z,6.59
2019-03-25T00:23:33.378Z,6.64
2019-03-25T00:24:38.633Z,6.62
2019-03-25T00:25:33.364Z,6.62
2019-03-25T00:26:33.356Z,6.52
2019-03-25T00:27:33.338Z,6.46
2019-03-25T00:28:33.340Z,6.52
2019-03-25T00:29:33.318Z,6.52
2019-03-25T00:30:33.311Z,6.57
2019-03-25T00:31:33.303Z,6.52
2019-03-25T00:32:33.290Z,6.54
2019-03-25T00:33:33.282Z,6.48
2019-03-25T00:34:33.278Z,6.57
2019-03-25T00:35:33.264Z,6.54
2019-03-25T00:36:33.251Z,6.59
2019-03-25T00:37:33.239Z,6.51
2019-03-25T00:38:33.231Z,6.42
2019-03-25T00:39:33.220Z,6.45
2019-03-25T00:40:33.220Z,6.42
2019-03-25T00:41:33.202Z,-40.00
2019-03-25T00:42:33.187Z,6.54
2019-03-25T00:43:33.179Z,6.48
2019-03-25T00:44:33.168Z,6.52
2019-03-25T00:45:33.152Z,6.42
2019-03-25T00:46:33.145Z,6.46
2019-03-25T00:47:33.138Z,6.42
2019-03-25T00:48:33.129Z,6.56
2019-03-25T00:49:33.116Z,6.44
2019-03-25T00:50:33.106Z,6.52
2019-03-25T00:51:33.094Z,6.44
2019-03-25T00:52:33.083Z,6.51
2019-03-25T00:53:33.074Z,6.48
2019-03-25T00:54:33.062Z,6.46
2019-03-25T00:55:33.051Z,6.45
2019-03-25T00:56:33.045Z,6.48
2019-03-25T00:57:33.028Z,6.52
2019-03-25T00:58:33.018Z,6.54
2019-03-25T00:59:33.008Z,6.54
2019-03-25T01:00:33.002Z,6.59
2019-03-25T01:01:32.993Z,6.48
2019-03-25T01:02:32.980Z,6.59
2019-03-25T01:03:32.962Z,6.60
2019-03-25T01:04:32.960Z,6.52
2019-03-25T01:05:32.940Z,6.49
2019-03-25T01:06:32.934Z,6.51
2019-03-25T01:07:32.992Z,6.52
2019-03-25T01:08:32.917Z,6.48
2019-03-25T01:09:32.900Z,6.60
2019-03-25T01:10:32.905Z,6.59
2019-03-25T01:11:32.906Z,6.64
2019-03-25T01:12:32.876Z,6.62
2019-03-25T01:13:32.863Z,6.59
2019-03-25T01:14:32.862Z,6.67
2019-03-25T01:15:32.838Z,6.62
2019-03-25T01:16:32.834Z,6.69
2019-03-25T01:17:32.820Z,6.66
2019-03-25T01:18:32.814Z,6.56
2019-03-25T01:19:32.801Z,6.67
2019-03-25T01:20:32.790Z,6.63
2019-03-25T01:21:32.775Z,6.67
2019-03-25T01:22:32.770Z,6.70
2019-03-25T01:23:32.761Z,6.66
2019-03-25T01:24:32.754Z,6.62
2019-03-25T01:25:32.735Z,6.72
2019-03-25T01:26:32.733Z,6.74
2019-03-25T01:27:32.716Z,6.60
2019-03-25T01:28:32.706Z,6.64
2019-03-25T01:29:32.688Z,6.69
2019-03-25T01:30:32.680Z,6.63
2019-03-25T01:31:32.674Z,6.72
2019-03-25T01:32:32.669Z,6.72
2019-03-25T01:33:32.647Z,6.75
2019-03-25T01:34:32.643Z,6.77
2019-03-25T01:35:32.629Z,6.75
2019-03-25T01:36:32.621Z,6.62
2019-03-25T01:37:33.432Z,6.72
2019-03-25T01:38:32.606Z,6.81
2019-03-25T01:39:32.585Z,6.75
2019-03-25T01:40:32.580Z,6.74
2019-03-25T01:41:32.572Z,6.75
2019-03-25T01:42:32.562Z,6.81
2019-03-25T01:43:32.554Z,6.81
2019-03-25T01:44:32.553Z,6.74
2019-03-25T01:45:32.525Z,6.78
2019-03-25T01:46:32.513Z,6.75
2019-03-25T01:47:32.506Z,6.77
2019-03-25T01:48:32.503Z,6.78
2019-03-25T01:49:32.497Z,6.77
2019-03-25T01:50:32.475Z,6.75
2019-03-25T01:51:32.463Z,6.81
2019-03-25T01:52:32.453Z,6.85
2019-03-25T01:53:32.442Z,6.79
2019-03-25T01:54:32.445Z,6.79
2019-03-25T01:55:32.437Z,6.78
2019-03-25T01:56:32.419Z,6.74
2019-03-25T01:57:32.400Z,6.77
2019-03-25T01:58:32.391Z,6.77
2019-03-25T01:59:32.379Z,6.77
2019-03-25T02:00:32.371Z,6.78
2019-03-25T02:01:32.361Z,6.72
2019-03-25T02:02:32.360Z,6.74
2019-03-25T02:03:32.343Z,6.77
2019-03-25T02:04:32.332Z,6.74
2019-03-25T02:05:32.314Z,6.72
2019-03-25T02:06:32.313Z,6.77
2019-03-25T02:07:32.297Z,6.70
2019-03-25T02:08:32.290Z,6.69
2019-03-25T02:09:32.273Z,-40.00
2019-03-25T02:10:32.267Z,6.72
2019-03-25T02:11:32.253Z,6.78
2019-03-25T02:12:32.248Z,6.60
2019-03-25T02:13:32.235Z,6.56
2019-03-25T02:14:32.227Z,6.69
2019-03-25T02:15:32.217Z,6.60
2019-03-25T02:16:32.201Z,6.60
2019-03-25T02:17:32.193Z,6.62
2019-03-25T02:18:32.190Z,6.70
2019-03-25T02:19:32.175Z,6.70
2019-03-25T02:20:32.233Z,-40.00
2019-03-25T02:21:32.153Z,-40.00
2019-03-25T02:22:32.213Z,6.74
2019-03-25T02:23:32.128Z,-40.00
2019-03-25T02:24:32.949Z,-40.00
2019-03-25T02:25:32.106Z,6.60
2019-03-25T02:26:32.102Z,6.72
2019-03-25T02:27:32.088Z,6.64
2019-03-25T02:28:32.077Z,6.64
2019-03-25T02:29:32.066Z,-40.00
2019-03-25T02:30:32.064Z,-40.00
2019-03-25T02:31:32.053Z,6.62
2019-03-25T02:32:32.035Z,-40.00
2019-03-25T02:33:32.033Z,-40.00
2019-03-25T02:34:32.022Z,-40.00
2019-03-25T02:35:32.006Z,-40.00
2019-03-25T02:36:32.005Z,-40.00
2019-03-25T02:37:31.984Z,-40.00
2019-03-25T02:38:31.975Z,-40.00
2019-03-25T02:39:31.965Z,-40.00
2019-03-25T02:40:32.044Z,-40.00
2019-03-25T02:41:31.946Z,-40.00
2019-03-25T02:42:31.938Z,-40.00
2019-03-25T02:43:31.921Z,-40.00
2019-03-25T02:44:31.905Z,-40.00
2019-03-25T02:45:31.899Z,-40.00
2019-03-25T02:46:31.897Z,-40.00
2019-03-25T02:47:32.448Z,-40.00
2019-03-25T02:48:31.877Z,-40.00
2019-03-25T02:49:31.856Z,-40.00
2019-03-25T02:50:31.850Z,-40.00
2019-03-25T02:51:31.832Z,-40.00
2019-03-25T02:52:31.819Z,-40.00
2019-03-25T02:53:31.811Z,-40.00
2019-03-25T02:54:31.804Z,-40.00
2019-03-25T02:55:41.632Z,-40.00
2019-03-25T02:56:31.782Z,-40.00
2019-03-25T02:57:31.771Z,-40.00
2019-03-25T02:58:31.775Z,-40.00
2019-03-25T02:59:31.753Z,-40.00
2019-03-25T03:00:31.754Z,-40.00
2019-03-25T03:01:31.732Z,-40.00
2019-03-25T03:02:31.713Z,-40.00
2019-03-25T03:03:31.707Z,-40.00
2019-03-25T03:04:31.710Z,-40.00
2019-03-25T03:05:31.687Z,-40.00
2019-03-25T03:06:32.460Z,-40.00
2019-03-25T03:07:31.672Z,-40.00
2019-03-25T03:08:31.661Z,-40.00
2019-03-25T03:09:32.463Z,-40.00
2019-03-25T03:10:31.646Z,-40.00
2019-03-25T03:11:31.625Z,-40.00
2019-03-25T03:12:31.619Z,-40.00
2019-03-25T03:13:31.607Z,-40.00
2019-03-25T03:14:31.597Z,-40.00
2019-03-25T03:15:31.586Z,6.60
2019-03-25T03:16:31.570Z,-40.00
2019-03-25T03:17:31.580Z,-40.00
2019-03-25T03:18:31.554Z,6.70
2019-03-25T03:19:31.545Z,-40.00
2019-03-25T03:20:31.539Z,6.63
2019-03-25T03:21:31.516Z,-40.00
2019-03-25T03:22:31.511Z,-40.00
2019-03-25T03:23:31.500Z,-40.00
2019-03-25T03:24:31.490Z,-40.00
2019-03-25T03:25:31.486Z,-40.00
2019-03-25T03:26:31.470Z,6.30
2019-03-25T03:27:31.463Z,6.36
2019-03-25T03:28:31.441Z,-40.00
2019-03-25T03:29:31.443Z,-40.00
2019-03-25T03:30:31.424Z,-40.00
2019-03-25T03:31:31.413Z,-40.00
2019-03-25T03:32:31.405Z,6.14
2019-03-25T03:33:31.475Z,6.20
2019-03-25T03:34:31.398Z,6.08
2019-03-25T03:35:31.388Z,-40.00
2019-03-25T03:36:31.363Z,6.07
2019-03-25T03:37:31.344Z,-40.00
2019-03-25T03:38:31.351Z,-40.00
2019-03-25T03:39:31.330Z,-40.00
2019-03-25T03:40:31.321Z,-40.00
2019-03-25T03:41:31.304Z,-40.00
2019-03-25T03:42:31.297Z,-40.00
2019-03-25T03:43:31.282Z,-40.00
2019-03-25T03:44:31.275Z,-40.00
2019-03-25T03:45:31.968Z,-40.00
2019-03-25T03:46:31.256Z,-40.00
2019-03-25T03:47:31.238Z,-40.00
2019-03-25T03:48:31.235Z,-40.00
2019-03-25T03:49:31.220Z,-40.00
2019-03-25T03:50:31.225Z,-40.00
2019-03-25T03:51:31.200Z,-40.00
2019-03-25T03:52:31.186Z,-40.00
2019-03-25T03:53:31.179Z,-40.00
2019-03-25T03:54:31.170Z,-40.00
2019-03-25T03:55:31.167Z,-40.00
2019-03-25T03:56:31.151Z,-40.00
2019-03-25T03:57:31.137Z,-40.00
2019-03-25T03:58:31.136Z,-40.00
2019-03-25T03:59:31.109Z,-40.00
2019-03-25T04:00:31.103Z,-40.00
2019-03-25T04:01:31.152Z,-40.00
2019-03-25T04:02:31.086Z,-40.00
2019-03-25T04:03:31.071Z,-40.00
2019-03-25T04:04:31.056Z,-40.00
2019-03-25T04:05:31.054Z,5.68
2019-03-25T04:06:31.040Z,-40.00
2019-03-25T04:07:31.028Z,5.68
2019-03-25T04:08:31.010Z,5.59
2019-03-25T04:09:31.002Z,5.64
2019-03-25T04:10:30.998Z,5.54
2019-03-25T04:11:30.980Z,5.59
2019-03-25T04:12:30.971Z,5.56
2019-03-25T04:13:30.961Z,5.62
2019-03-25T04:14:30.947Z,5.50
2019-03-25T04:15:30.938Z,5.57
2019-03-25T04:16:30.926Z,5.57
2019-03-25T04:17:30.912Z,5.50
2019-03-25T04:18:30.904Z,5.47
2019-03-25T04:19:30.905Z,5.41
2019-03-25T04:20:30.894Z,5.38
2019-03-25T04:21:30.872Z,5.41
2019-03-25T04:22:30.865Z,5.33
2019-03-25T04:23:30.857Z,-40.00
2019-03-25T04:24:30.836Z,-40.00
2019-03-25T04:25:30.850Z,-40.00
2019-03-25T04:26:30.821Z,-40.00
2019-03-25T04:27:30.800Z,-40.00
2019-03-25T04:28:30.792Z,-40.00
2019-03-25T04:29:30.791Z,-40.00
2019-03-25T04:30:30.775Z,-40.00
2019-03-25T04:31:30.757Z,-40.00
2019-03-25T04:32:30.749Z,-40.00
2019-03-25T04:33:30.744Z,-40.00
2019-03-25T04:34:30.729Z,-40.00
2019-03-25T04:35:30.711Z,-40.00
2019-03-25T04:36:31.485Z,-40.00
2019-03-25T04:37:30.691Z,-40.00
2019-03-25T04:38:30.683Z,-40.00
2019-03-25T04:39:30.669Z,-40.00
2019-03-25T04:40:30.670Z,-40.00
2019-03-25T04:41:30.648Z,-40.00
2019-03-25T04:42:30.650Z,5.12
2019-03-25T04:43:30.629Z,-40.00
2019-03-25T04:44:31.500Z,-40.00
2019-03-25T04:45:30.599Z,-40.00
2019-03-25T04:46:30.596Z,-40.00
2019-03-25T04:47:30.586Z,-40.00
2019-03-25T04:48:30.570Z,-40.00
2019-03-25T04:49:30.565Z,-40.00
2019-03-25T04:50:30.550Z,-40.00
2019-03-25T04:51:30.537Z,-40.00
2019-03-25T04:52:30.532Z,-40.00
2019-03-25T04:53:30.515Z,-40.00
2019-03-25T04:54:31.477Z,-40.00
2019-03-25T04:55:30.497Z,-40.00
2019-03-25T04:56:39.042Z,-40.00
2019-03-25T04:57:30.464Z,-40.00
2019-03-25T04:58:30.463Z,-40.00
2019-03-25T04:59:30.975Z,-40.00
2019-03-25T05:00:30.435Z,-40.00
2019-03-25T05:01:30.419Z,-40.00
2019-03-25T05:02:30.413Z,-40.00
2019-03-25T05:03:30.405Z,-40.00
2019-03-25T05:04:30.393Z,-40.00
2019-03-25T05:05:30.378Z,4.89
2019-03-25T05:06:30.380Z,4.94
2019-03-25T05:07:30.355Z,4.87
2019-03-25T05:08:30.342Z,4.93
2019-03-25T05:09:30.336Z,4.94
2019-03-25T05:10:30.331Z,4.94
2019-03-25T05:11:30.983Z,4.93
2019-03-25T05:12:30.307Z,-40.00
2019-03-25T05:13:30.303Z,-40.00
2019-03-25T05:14:30.279Z,-40.00
2019-03-25T05:15:30.264Z,-40.00
2019-03-25T05:16:30.254Z,-40.00
2019-03-25T05:17:30.247Z,-40.00
2019-03-25T05:18:30.236Z,-40.00
2019-03-25T05:19:30.221Z,-40.00
2019-03-25T05:20:30.210Z,-40.00
2019-03-25T05:21:30.195Z,-40.00
2019-03-25T05:22:30.193Z,-40.00
2019-03-25T05:23:30.193Z,-40.00
2019-03-25T05:24:30.164Z,-40.00
2019-03-25T05:25:30.147Z,-40.00
2019-03-25T05:26:30.146Z,-40.00
2019-03-25T05:27:30.129Z,-40.00
2019-03-25T05:28:30.113Z,-40.00
2019-03-25T05:29:30.116Z,-40.00
2019-03-25T05:30:30.097Z,-40.00
2019-03-25T05:31:30.080Z,-40.00
2019-03-25T05:32:30.074Z,-40.00
2019-03-25T05:33:30.061Z,-40.00
2019-03-25T05:34:30.050Z,-40.00
2019-03-25T05:35:30.045Z,-40.00
2019-03-25T05:36:30.214Z,-40.00
2019-03-25T05:37:30.016Z,-40.00
2019-03-25T05:38:29.998Z,-40.00
2019-03-25T05:39:30.000Z,-40.00
2019-03-25T05:40:29.983Z,-40.00
2019-03-25T05:41:29.967Z,-40.00
2019-03-25T05:42:29.959Z,-40.00
2019-03-25T05:43:29.954Z,-40.00
2019-03-25T05:44:29.933Z,-40.00
2019-03-25T05:45:29.932Z,-40.00
2019-03-25T05:46:29.912Z,-40.00
2019-03-25T05:47:29.904Z,-40.00
2019-03-25T05:48:29.893Z,-40.00
2019-03-25T05:49:29.881Z,-40.00
2019-03-25T05:50:29.868Z,-40.00
2019-03-25T05:51:29.863Z,-40.00
2019-03-25T05:52:29.850Z,-40.00
2019-03-25T05:53:29.835Z,-40.00
2019-03-25T05:54:29.830Z,-40.00
2019-03-25T05:55:29.811Z,-40.00
2019-03-25T05:56:29.808Z,-40.00
2019-03-25T05:57:29.791Z,-40.00
2019-03-25T05:58:29.785Z,-40.00
2019-03-25T05:59:29.764Z,-40.00
2019-03-25T06:00:29.768Z,-40.00
2019-03-25T06:01:29.746Z,-40.00
2019-03-25T06:02:29.742Z,-40.00
2019-03-25T06:03:29.722Z,-40.00
2019-03-25T06:04:29.711Z,-40.00
2019-03-25T06:05:29.708Z,-40.00
2019-03-25T06:06:29.703Z,-40.00
2019-03-25T06:07:29.681Z,-40.00
2019-03-25T06:08:29.673Z,-40.00
2019-03-25T06:09:29.664Z,-40.00
2019-03-25T06:10:29.645Z,-40.00
2019-03-25T06:11:29.656Z,-40.00
2019-03-25T06:12:29.623Z,-40.00
2019-03-25T06:13:29.612Z,-40.00
2019-03-25T06:14:29.606Z,-40.00
2019-03-25T06:15:29.582Z,-40.00
2019-03-25T06:16:29.579Z,-40.00
2019-03-25T06:17:29.584Z,-40.00
2019-03-25T06:18:29.554Z,-40.00
2019-03-25T06:19:29.538Z,-40.00
2019-03-25T06:20:29.530Z,-40.00
2019-03-25T06:21:29.523Z,-40.00
2019-03-25T06:22:29.512Z,-40.00
2019-03-25T06:23:29.498Z,-40.00
2019-03-25T06:24:29.484Z,-40.00
2019-03-25T06:25:29.476Z,-40.00
2019-03-25T06:26:29.462Z,-40.00
2019-03-25T06:27:29.448Z,-40.00
2019-03-25T06:28:29.456Z,-40.00
2019-03-25T06:29:31.938Z,-40.00
2019-03-25T06:30:29.442Z,-40.00
2019-03-25T06:31:29.417Z,-40.00
2019-03-25T06:32:29.396Z,-40.00
2019-03-25T06:33:29.383Z,-40.00
2019-03-25T06:34:29.374Z,-40.00
2019-03-25T06:35:30.001Z,-40.00
2019-03-25T06:36:29.355Z,-40.00
2019-03-25T06:37:29.344Z,-40.00
2019-03-25T06:38:29.334Z,-40.00
2019-03-25T06:39:29.320Z,-40.00
2019-03-25T06:40:29.313Z,-40.00
2019-03-25T06:41:29.298Z,-40.00
2019-03-25T06:42:29.303Z,-40.00
2019-03-25T06:43:29.279Z,-40.00
2019-03-25T06:44:29.263Z,-40.00
2019-03-25T06:45:29.260Z,-40.00
2019-03-25T06:46:29.244Z,-40.00
2019-03-25T06:47:29.234Z,-40.00
2019-03-25T06:48:29.225Z,-40.00
2019-03-25T06:49:29.245Z,-40.00
2019-03-25T06:50:29.200Z,-40.00
2019-03-25T06:51:29.189Z,-40.00
2019-03-25T06:52:29.184Z,-40.00
2019-03-25T06:53:29.168Z,-40.00
2019-03-25T06:54:29.159Z,-40.00
2019-03-25T06:55:29.143Z,-40.00
2019-03-25T06:56:29.135Z,-40.00
2019-03-25T06:57:29.123Z,-40.00
2019-03-25T06:58:29.108Z,-40.00
2019-03-25T06:59:29.222Z,-40.00
2019-03-25T07:00:29.703Z,-40.00
2019-03-25T07:01:29.084Z,-40.00
2019-03-25T07:02:29.067Z,-40.00
2019-03-25T07:03:29.911Z,-40.00
2019-03-25T07:04:29.053Z,-40.00
2019-03-25T07:05:29.042Z,-40.00
2019-03-25T07:06:29.039Z,-40.00
2019-03-25T07:07:29.013Z,-40.00
2019-03-25T07:08:29.006Z,-40.00
2019-03-25T07:09:28.991Z,-40.00
2019-03-25T07:10:28.984Z,-40.00
2019-03-25T07:11:28.970Z,-40.00
2019-03-25T07:12:28.968Z,-40.00
2019-03-25T07:13:28.959Z,-40.00
2019-03-25T07:14:28.935Z,-40.00
2019-03-25T07:15:28.935Z,-40.00
2019-03-25T07:16:28.914Z,-40.00
2019-03-25T07:17:28.910Z,-40.00
2019-03-25T07:18:28.895Z,-40.00
2019-03-25T07:19:28.885Z,-40.00
2019-03-25T07:20:28.876Z,-40.00
2019-03-25T07:21:28.867Z,-40.00
2019-03-25T07:22:28.851Z,-40.00
2019-03-25T07:23:28.839Z,-40.00
2019-03-25T07:24:28.873Z,-40.00
2019-03-25T07:25:28.817Z,-40.00
2019-03-25T07:26:28.808Z,-40.00
2019-03-25T07:27:36.674Z,-40.00
2019-03-25T07:28:28.787Z,-40.00
2019-03-25T07:29:28.778Z,-40.00
2019-03-25T07:30:28.763Z,-40.00
2019-03-25T07:31:28.760Z,-40.00
2019-03-25T07:32:28.761Z,-40.00
2019-03-25T07:33:28.744Z,-40.00
2019-03-25T07:34:28.722Z,-40.00
2019-03-25T07:35:28.708Z,-40.00
2019-03-25T07:36:28.706Z,6.38
2019-03-25T07:37:28.696Z,6.41
2019-03-25T07:38:28.678Z,6.44
2019-03-25T07:39:28.673Z,6.44
2019-03-25T07:40:28.663Z,6.41
2019-03-25T07:41:28.656Z,6.45
2019-03-25T07:42:28.642Z,6.44
2019-03-25T07:43:28.628Z,6.46
2019-03-25T07:44:28.619Z,6.45
2019-03-25T07:45:28.608Z,6.49
2019-03-25T07:46:28.612Z,6.45
2019-03-25T07:47:28.597Z,6.49
2019-03-25T07:48:28.579Z,6.30
2019-03-25T07:49:28.569Z,6.30
2019-03-25T07:50:28.557Z,6.26
2019-03-25T07:51:28.543Z,6.24
2019-03-25T07:52:28.532Z,6.28
2019-03-25T07:53:28.537Z,6.22
2019-03-25T07:54:28.561Z,6.26
2019-03-25T07:55:28.528Z,6.17
2019-03-25T07:56:28.491Z,6.08
2019-03-25T07:57:28.489Z,6.12
2019-03-25T07:58:28.478Z,6.05
2019-03-25T07:59:28.489Z,5.97
2019-03-25T08:00:28.455Z,5.93
2019-03-25T08:01:28.462Z,5.97
2019-03-25T08:02:29.444Z,5.93
2019-03-25T08:03:28.445Z,5.97
2019-03-25T08:04:28.452Z,5.93
2019-03-25T08:05:28.431Z,-40.00
2019-03-25T08:06:28.391Z,-40.00
2019-03-25T08:07:28.373Z,-40.00
2019-03-25T08:08:28.368Z,-40.00
2019-03-25T08:09:28.355Z,-40.00
2019-03-25T08:10:28.343Z,-40.00
2019-03-25T08:11:28.367Z,-40.00
2019-03-25T08:12:28.324Z,-40.00
2019-03-25T08:13:28.306Z,-40.00
2019-03-25T08:14:28.299Z,5.73
2019-03-25T08:15:28.302Z,5.64
2019-03-25T08:16:28.271Z,5.65
2019-03-25T08:17:28.265Z,5.69
2019-03-25T08:18:28.259Z,-40.00
2019-03-25T08:19:28.241Z,-40.00
2019-03-25T08:20:28.235Z,-40.00
2019-03-25T08:21:28.218Z,-40.00
2019-03-25T08:22:28.235Z,-40.00
2019-03-25T08:23:28.194Z,-40.00
2019-03-25T08:24:28.181Z,-40.00
2019-03-25T08:25:28.175Z,-40.00
2019-03-25T08:26:28.167Z,-40.00
2019-03-25T08:27:28.148Z,-40.00
2019-03-25T08:28:28.137Z,-40.00
2019-03-25T08:29:28.132Z,5.80
2019-03-25T08:30:28.118Z,-40.00
2019-03-25T08:31:28.110Z,6.05
2019-03-25T08:32:28.096Z,6.26
2019-03-25T08:33:28.095Z,6.30
2019-03-25T08:34:28.072Z,6.28
2019-03-25T08:35:28.066Z,6.35
2019-03-25T08:36:28.048Z,6.42
2019-03-25T08:37:29.034Z,6.54
2019-03-25T08:38:28.037Z,6.74
2019-03-25T08:39:28.035Z,6.89
2019-03-25T08:40:28.011Z,6.97
2019-03-25T08:41:28.011Z,7.07
2019-03-25T08:42:27.990Z,7.23
2019-03-25T08:43:28.009Z,7.31
2019-03-25T08:44:27.972Z,7.47
2019-03-25T08:45:27.979Z,7.58
2019-03-25T08:46:27.952Z,7.54
2019-03-25T08:47:27.942Z,7.69
2019-03-25T08:48:27.939Z,7.76
2019-03-25T08:49:27.932Z,7.98
2019-03-25T08:50:27.910Z,8.18
2019-03-25T08:51:27.902Z,8.37
2019-03-25T08:52:27.914Z,8.45
2019-03-25T08:53:27.899Z,8.71
2019-03-25T08:54:27.879Z,8.81
2019-03-25T08:55:27.876Z,9.00
2019-03-25T08:56:27.865Z,9.18
2019-03-25T08:57:27.854Z,9.29
2019-03-25T08:58:28.358Z,9.56
2019-03-25T08:59:27.844Z,9.61
2019-03-25T09:00:27.835Z,9.79
2019-03-25T09:01:27.827Z,9.95
2019-03-25T09:02:27.822Z,9.99
2019-03-25T09:03:27.814Z,10.16
2019-03-25T09:04:27.807Z,10.15
2019-03-25T09:05:27.797Z,10.37
2019-03-25T09:06:27.792Z,10.31
2019-03-25T09:07:27.784Z,10.49
2019-03-25T09:08:27.784Z,10.53
2019-03-25T09:09:27.776Z,10.60
2019-03-25T09:10:27.827Z,-40.00
2019-03-25T09:11:27.765Z,10.79
2019-03-25T09:12:27.762Z,10.84
2019-03-25T09:13:27.755Z,10.67
2019-03-25T09:14:27.753Z,10.57
2019-03-25T09:15:27.749Z,10.40
2019-03-25T09:16:27.743Z,10.33
2019-03-25T09:17:27.735Z,10.22
2019-03-25T09:18:27.729Z,10.30
2019-03-25T09:19:27.725Z,10.44
2019-03-25T09:20:27.727Z,10.54
2019-03-25T09:21:27.722Z,10.30
2019-03-25T09:22:27.710Z,10.23
2019-03-25T09:23:27.708Z,10.19
2019-03-25T09:24:27.709Z,10.26
2019-03-25T09:25:27.689Z,10.10
2019-03-25T09:26:27.697Z,10.12
2019-03-25T09:27:27.685Z,10.10
2019-03-25T09:28:27.687Z,10.02
2019-03-25T09:29:27.671Z,9.94
2019-03-25T09:30:27.671Z,9.83
2019-03-25T09:31:36.410Z,9.82
2019-03-25T09:32:27.654Z,9.69
2019-03-25T09:33:27.642Z,9.51
2019-03-25T09:34:27.653Z,9.34
2019-03-25T09:35:27.629Z,9.10
2019-03-25T09:36:27.629Z,9.10
2019-03-25T09:37:27.624Z,8.92
2019-03-25T09:38:27.616Z,8.73
2019-03-25T09:39:27.625Z,8.45
2019-03-25T09:40:27.623Z,8.28
2019-03-25T09:41:27.589Z,8.00
2019-03-25T09:42:27.588Z,7.80
2019-03-25T09:43:27.577Z,7.66
2019-03-25T09:44:27.568Z,7.56
2019-03-25T09:45:27.552Z,7.54
2019-03-25T09:46:27.546Z,7.47
2019-03-25T09:47:27.543Z,7.48
2019-03-25T09:48:27.541Z,7.42
2019-03-25T09:49:27.523Z,7.56
2019-03-25T09:50:27.519Z,7.53
2019-03-25T09:51:27.505Z,7.58
2019-03-25T09:52:38.088Z,7.79
2019-03-25T09:53:27.495Z,8.13
2019-03-25T09:54:27.490Z,8.46
2019-03-25T09:55:27.474Z,8.73
2019-03-25T09:56:27.466Z,9.11
2019-03-25T09:57:27.449Z,9.39
2019-03-25T09:58:36.102Z,9.61
2019-03-25T09:59:27.440Z,9.66
2019-03-25T10:00:27.426Z,9.36
2019-03-25T10:01:27.522Z,9.23
2019-03-25T10:02:27.417Z,9.21
2019-03-25T10:03:27.413Z,9.18
2019-03-25T10:04:27.402Z,9.08
2019-03-25T10:05:27.388Z,8.97
2019-03-25T10:06:27.382Z,9.02
2019-03-25T10:07:28.493Z,9.16
2019-03-25T10:08:27.366Z,9.14
2019-03-25T10:09:27.361Z,9.11
2019-03-25T10:10:27.351Z,9.00
2019-03-25T10:11:28.009Z,8.91
2019-03-25T10:12:27.332Z,8.79
2019-03-25T10:13:27.338Z,8.79
2019-03-25T10:14:27.396Z,8.70
2019-03-25T10:15:27.314Z,8.67
2019-03-25T10:16:27.304Z,8.73
2019-03-25T10:17:27.301Z,8.92
2019-03-25T10:18:27.297Z,9.14
2019-03-25T10:19:27.277Z,9.31
2019-03-25T10:20:27.271Z,9.55
2019-03-25T10:21:27.259Z,9.64
2019-03-25T10:22:27.253Z,9.80
2019-03-25T10:23:27.249Z,9.86
2019-03-25T10:24:28.035Z,9.80
2019-03-25T10:25:27.231Z,9.73
2019-03-25T10:26:27.237Z,9.77
2019-03-25T10:27:27.222Z,9.64
2019-03-25T10:28:27.220Z,9.62
2019-03-25T10:29:27.206Z,9.46
2019-03-25T10:30:27.197Z,9.46
2019-03-25T10:31:27.190Z,-40.00
2019-03-25T10:32:27.201Z,9.41
2019-03-25T10:33:27.172Z,9.56
2019-03-25T10:34:27.168Z,9.73
2019-03-25T10:35:27.184Z,10.02
2019-03-25T10:36:27.153Z,10.19
2019-03-25T10:37:27.152Z,10.33
2019-03-25T10:38:27.143Z,10.69
2019-03-25T10:39:27.131Z,10.79
2019-03-25T10:40:27.122Z,11.04
2019-03-25T10:41:27.124Z,11.30
2019-03-25T10:42:27.123Z,11.43
2019-03-25T10:43:27.111Z,-40.00
2019-03-25T10:44:27.109Z,11.99
2019-03-25T10:45:27.101Z,12.15
2019-03-25T10:46:27.097Z,12.03
2019-03-25T10:47:27.089Z,11.99
2019-03-25T10:48:27.088Z,11.87
2019-03-25T10:49:27.077Z,11.75
2019-03-25T10:50:27.081Z,11.65
2019-03-25T10:51:27.078Z,11.66
2019-03-25T10:52:27.135Z,11.62
2019-03-25T10:53:27.076Z,11.59
2019-03-25T10:54:27.085Z,11.43
2019-03-25T10:55:27.058Z,11.29
2019-03-25T10:56:27.055Z,11.04
2019-03-25T10:57:27.051Z,10.99
2019-03-25T10:58:27.045Z,-40.00
2019-03-25T10:59:27.039Z,11.00
2019-03-25T11:00:27.038Z,11.07
2019-03-25T11:01:27.027Z,11.26
2019-03-25T11:02:27.025Z,-40.00
2019-03-25T11:03:27.018Z,11.55
2019-03-25T11:04:27.019Z,11.77
2019-03-25T11:05:27.006Z,11.73
2019-03-25T11:06:27.005Z,11.86
2019-03-25T11:07:29.392Z,11.91
2019-03-25T11:08:26.994Z,11.91
2019-03-25T11:09:26.993Z,12.00
2019-03-25T11:10:26.986Z,12.04
2019-03-25T11:11:26.992Z,12.22
2019-03-25T11:12:26.978Z,12.28
2019-03-25T11:13:26.975Z,12.35
2019-03-25T11:14:26.985Z,12.54
2019-03-25T11:15:26.971Z,12.60
2019-03-25T11:16:26.973Z,12.47
2019-03-25T11:17:26.968Z,12.47
2019-03-25T11:18:26.964Z,12.27
2019-03-25T11:19:26.959Z,12.21
2019-03-25T11:20:26.957Z,12.07
2019-03-25T11:21:26.957Z,11.83
2019-03-25T11:22:26.953Z,11.80
2019-03-25T11:23:27.610Z,11.63
2019-03-25T11:24:26.940Z,-40.00
2019-03-25T11:25:26.936Z,10.84
2019-03-25T11:26:26.931Z,-40.00
2019-03-25T11:27:26.926Z,-40.00
2019-03-25T11:28:26.927Z,9.84
2019-03-25T11:29:26.937Z,9.58
2019-03-25T11:30:26.920Z,-40.00
2019-03-25T11:31:26.912Z,9.16
2019-03-25T11:32:26.905Z,8.91
2019-03-25T11:33:26.899Z,8.78
2019-03-25T11:34:26.891Z,8.51
2019-03-25T11:35:26.903Z,-40.00
2019-03-25T11:36:26.880Z,8.37
2019-03-25T11:37:26.873Z,8.28
2019-03-25T11:38:26.869Z,8.23
2019-03-25T11:39:26.859Z,8.09
2019-03-25T11:40:26.853Z,-40.00
2019-03-25T11:41:26.867Z,-40.00
2019-03-25T11:42:26.838Z,-40.00
2019-03-25T11:43:26.829Z,7.91
2019-03-25T11:44:28.977Z,8.05
2019-03-25T11:45:26.816Z,-40.00
2019-03-25T11:46:26.804Z,7.94
2019-03-25T11:47:26.797Z,-40.00
2019-03-25T11:48:26.801Z,-40.00
2019-03-25T11:49:26.799Z,7.90
2019-03-25T11:50:26.773Z,-40.00
2019-03-25T11:51:26.772Z,-40.00
2019-03-25T11:52:26.759Z,-40.00
2019-03-25T11:53:26.752Z,-40.00
2019-03-25T11:54:26.739Z,-40.00
2019-03-25T11:55:26.729Z,-40.00
2019-03-25T11:56:26.725Z,8.41
2019-03-25T11:57:26.714Z,-40.00
2019-03-25T11:58:26.707Z,8.52
2019-03-25T11:59:26.709Z,8.79
2019-03-25T12:00:26.689Z,9.02
2019-03-25T12:01:26.680Z,-40.00
2019-03-25T12:02:26.685Z,9.58
2019-03-25T12:03:26.662Z,-40.00
2019-03-25T12:04:26.663Z,9.97
2019-03-25T12:05:26.661Z,-40.00
2019-03-25T12:06:26.651Z,-40.00
2019-03-25T12:07:26.643Z,10.40
2019-03-25T12:08:26.639Z,10.64
2019-03-25T12:09:26.627Z,10.79
2019-03-25T12:10:26.623Z,-40.00
2019-03-25T12:11:26.624Z,-40.00
2019-03-25T12:12:26.610Z,-40.00
2019-03-25T12:13:26.614Z,11.43
2019-03-25T12:14:26.612Z,11.44
2019-03-25T12:15:26.604Z,11.59
2019-03-25T12:16:26.599Z,-40.00
2019-03-25T12:17:26.602Z,11.68
2019-03-25T12:18:26.591Z,-40.00
2019-03-25T12:19:26.639Z,11.90
2019-03-25T12:20:26.583Z,-40.00
2019-03-25T12:21:26.580Z,-40.00
2019-03-25T12:22:26.579Z,11.91
2019-03-25T12:23:26.800Z,12.03
2019-03-25T12:24:26.575Z,-40.00
2019-03-25T12:25:26.575Z,12.00
2019-03-25T12:26:26.571Z,-40.00
2019-03-25T12:27:26.623Z,12.50
2019-03-25T12:28:26.569Z,12.47
2019-03-25T12:29:30.403Z,12.40
2019-03-25T12:30:26.559Z,-40.00
2019-03-25T12:31:26.556Z,-40.00
2019-03-25T12:32:26.560Z,12.32
2019-03-25T12:33:26.551Z,12.25
2019-03-25T12:34:26.620Z,12.29
2019-03-25T12:35:26.549Z,12.31
2019-03-25T12:36:26.547Z,12.46
2019-03-25T12:37:26.556Z,12.60
2019-03-25T12:38:26.545Z,12.58
2019-03-25T12:39:26.538Z,12.64
2019-03-25T12:40:26.535Z,-40.00
2019-03-25T12:41:26.531Z,-40.00
2019-03-25T12:42:26.528Z,-40.00
2019-03-25T12:43:26.523Z,-40.00
2019-03-25T12:44:26.525Z,-40.00
2019-03-25T12:45:28.361Z,12.07
2019-03-25T12:46:26.514Z,11.95
2019-03-25T12:47:26.524Z,11.72
2019-03-25T12:48:26.508Z,11.68
2019-03-25T12:49:26.505Z,11.55
2019-03-25T12:50:26.503Z,-40.00
2019-03-25T12:51:26.493Z,-40.00
2019-03-25T12:52:26.489Z,-40.00